createdAt,value
2019-01-06T00:01:27.605Z,30.87
2019-01-06T00:04:33.775Z,30.90
2019-01-06T00:07:42.196Z,30.93
2019-01-06T00:10:48.307Z,30.10
2019-01-06T00:13:45.056Z,30.27
2019-01-06T00:16:51.081Z,30.13
2019-01-06T00:19:54.517Z,29.57
2019-01-06T00:23:00.003Z,30.17
2019-01-06T00:26:05.250Z,30.37
2019-01-06T00:29:10.599Z,30.57
2019-01-06T00:32:16.290Z,30.87
2019-01-06T00:35:22.244Z,30.43
2019-01-06T00:38:28.320Z,30.57
2019-01-06T00:41:29.555Z,29.80
2019-01-06T00:44:38.208Z,29.27
2019-01-06T00:47:43.876Z,29.57
2019-01-06T00:50:49.546Z,30.50
2019-01-06T00:53:55.416Z,30.20
2019-01-06T00:57:07.388Z,29.00
2019-01-06T01:00:15.871Z,29.07
2019-01-06T01:03:21.757Z,29.47
2019-01-06T01:06:29.819Z,29.53
2019-01-06T01:09:36.173Z,29.30
2019-01-06T01:12:43.995Z,29.53
2019-01-06T01:15:45.800Z,29.33
2019-01-06T01:18:52.085Z,29.37
2019-01-06T01:21:57.591Z,29.63
2019-01-06T01:25:03.325Z,29.77
2019-01-06T01:28:09.411Z,29.23
2019-01-06T01:31:14.999Z,29.67
2019-01-06T01:34:17.967Z,29.53
2019-01-06T01:37:17.718Z,29.73
2019-01-06T01:40:19.475Z,28.30
2019-01-06T01:43:24.960Z,28.93
2019-01-06T01:46:31.742Z,29.30
2019-01-06T01:49:25.554Z,29.53
2019-01-06T01:52:38.572Z,29.73
2019-01-06T01:55:44.426Z,28.90
2019-01-06T01:58:45.184Z,29.90
2019-01-06T02:01:39.064Z,29.80
2019-01-06T02:04:52.055Z,29.60
2019-01-06T02:07:56.535Z,30.40
2019-01-06T02:11:01.871Z,30.07
2019-01-06T02:14:07.628Z,30.63
2019-01-06T02:17:13.171Z,30.17
2019-01-06T02:20:17.495Z,30.53
2019-01-06T02:23:23.423Z,29.67
2019-01-06T02:26:28.424Z,29.70
2019-01-06T02:29:34.243Z,29.67
2019-01-06T02:32:40.235Z,30.33
2019-01-06T02:35:46.055Z,30.30
2019-01-06T02:38:51.380Z,30.00
2019-01-06T02:41:58.631Z,29.83
2019-01-06T02:45:04.647Z,29.87
2019-01-06T02:48:10.691Z,30.13
2019-01-06T02:51:16.392Z,30.47
2019-01-06T02:54:22.311Z,30.00
2019-01-06T02:57:27.824Z,30.43
2019-01-06T03:00:36.776Z,30.67
2019-01-06T03:03:42.700Z,31.20
2019-01-06T03:06:48.130Z,29.90
2019-01-06T03:09:54.224Z,30.20
2019-01-06T03:12:54.553Z,30.97
2019-01-06T03:15:55.227Z,30.63
2019-01-06T03:19:00.915Z,31.10
2019-01-06T03:22:22.308Z,31.40
2019-01-06T03:25:28.301Z,30.83
2019-01-06T03:28:34.316Z,30.23
2019-01-06T03:31:40.134Z,30.83
2019-01-06T03:34:52.232Z,30.30
2019-01-06T03:37:57.773Z,30.60
2019-01-06T03:41:03.779Z,30.17
2019-01-06T03:44:15.714Z,30.97
2019-01-06T03:47:21.560Z,30.57
2019-01-06T03:50:27.700Z,30.77
2019-01-06T03:53:21.504Z,31.23
2019-01-06T03:56:34.511Z,31.07
2019-01-06T03:59:40.011Z,31.27
2019-01-06T04:02:46.154Z,31.20
2019-01-06T04:05:40.634Z,30.73
2019-01-06T04:08:46.716Z,30.77
2019-01-06T04:11:55.963Z,30.57
2019-01-06T04:15:01.767Z,30.73
2019-01-06T04:18:07.603Z,29.93
2019-01-06T04:21:04.995Z,30.83
2019-01-06T04:24:06.301Z,31.87
2019-01-06T04:27:08.942Z,32.00
2019-01-06T04:30:15.125Z,31.03
2019-01-06T04:33:23.502Z,31.57
2019-01-06T04:36:28.883Z,30.93
2019-01-06T04:39:34.818Z,31.83
2019-01-06T04:42:34.803Z,31.03
2019-01-06T04:45:40.456Z,32.00
2019-01-06T04:48:46.684Z,30.60
2019-01-06T04:51:52.633Z,30.50
2019-01-06T04:54:58.995Z,30.97
2019-01-06T04:58:03.095Z,31.13
2019-01-06T05:01:03.852Z,31.77
2019-01-06T05:04:09.923Z,31.40
2019-01-06T05:07:15.684Z,30.43
2019-01-06T05:10:21.695Z,29.63
2019-01-06T05:13:18.152Z,31.17
2019-01-06T05:16:22.107Z,30.17
2019-01-06T05:19:30.979Z,31.20
2019-01-06T05:22:31.946Z,30.20
2019-01-06T05:25:38.116Z,30.40
2019-01-06T05:28:44.103Z,30.93
2019-01-06T05:31:49.518Z,30.43
2019-01-06T05:34:55.051Z,30.53
2019-01-06T05:38:00.706Z,31.20
2019-01-06T05:41:06.308Z,30.40
2019-01-06T05:44:04.118Z,30.13
2019-01-06T05:47:09.420Z,29.53
2019-01-06T05:50:20.578Z,31.10
2019-01-06T05:53:26.700Z,29.73
2019-01-06T05:56:32.624Z,29.70
2019-01-06T05:59:38.110Z,30.00
2019-01-06T06:02:39.491Z,30.43
2019-01-06T06:05:45.259Z,30.10
2019-01-06T06:08:50.947Z,29.53
2019-01-06T06:11:56.930Z,29.17
2019-01-06T06:15:02.787Z,29.70
2019-01-06T06:18:10.154Z,29.03
2019-01-06T06:20:56.020Z,30.37
2019-01-06T06:24:06.146Z,29.97
2019-01-06T06:27:09.101Z,30.30
2019-01-06T06:30:15.111Z,29.70
2019-01-06T06:33:22.396Z,30.00
2019-01-06T06:36:31.211Z,29.60
2019-01-06T06:39:35.034Z,29.97
2019-01-06T06:42:41.212Z,29.30
2019-01-06T06:45:49.630Z,30.00
2019-01-06T06:48:47.886Z,28.90
2019-01-06T06:51:53.407Z,28.97
2019-01-06T06:54:59.202Z,28.63
2019-01-06T06:58:01.143Z,33.63
2019-01-06T07:01:06.673Z,29.83
2019-01-06T07:04:12.996Z,29.23
2019-01-06T07:07:24.522Z,29.00
2019-01-06T07:10:29.807Z,29.30
2019-01-06T07:13:23.636Z,29.13
2019-01-06T07:16:55.847Z,29.43
2019-01-06T07:20:07.719Z,28.77
2019-01-06T07:23:19.172Z,29.10
2019-01-06T07:26:21.952Z,29.97
2019-01-06T07:29:27.991Z,33.77
2019-01-06T07:32:33.468Z,35.13
2019-01-06T07:35:39.306Z,44.53
2019-01-06T07:38:45.471Z,41.77
2019-01-06T07:41:51.560Z,42.50
2019-01-06T07:44:57.632Z,31.23
2019-01-06T07:48:03.739Z,34.00
2019-01-06T07:51:09.146Z,33.30
2019-01-06T07:54:15.191Z,30.30
2019-01-06T07:57:20.907Z,30.43
2019-01-06T08:00:26.907Z,35.83
2019-01-06T08:03:35.725Z,30.23
2019-01-06T08:06:41.727Z,29.43
2019-01-06T08:09:47.888Z,30.07
2019-01-06T08:12:53.747Z,29.67
2019-01-06T08:15:59.448Z,28.93
2019-01-06T08:19:05.582Z,28.40
2019-01-06T08:22:11.117Z,28.53
2019-01-06T08:25:19.787Z,28.77
2019-01-06T08:28:25.731Z,30.23
2019-01-06T08:31:31.892Z,30.70
2019-01-06T08:34:37.751Z,28.67
2019-01-06T08:37:43.612Z,28.00
2019-01-06T08:40:49.362Z,29.40
2019-01-06T08:43:58.254Z,28.53
2019-01-06T08:47:07.003Z,29.93
2019-01-06T08:50:12.806Z,27.07
2019-01-06T08:53:18.804Z,26.80
2019-01-06T08:56:25.599Z,27.33
2019-01-06T08:59:31.493Z,31.17
2019-01-06T09:02:37.528Z,32.07
2019-01-06T09:05:43.664Z,27.37
2019-01-06T09:08:49.346Z,36.37
2019-01-06T09:11:55.404Z,33.53
2019-01-06T09:15:01.295Z,32.90
2019-01-06T09:18:13.169Z,27.73
2019-01-06T09:21:18.825Z,27.63
2019-01-06T09:24:31.546Z,28.37
2019-01-06T09:27:25.608Z,26.27
2019-01-06T09:30:38.624Z,28.17
2019-01-06T09:33:44.792Z,27.23
2019-01-06T09:36:50.867Z,27.10
2019-01-06T09:39:57.821Z,29.03
2019-01-06T09:43:06.728Z,28.60
2019-01-06T09:46:12.423Z,27.80
2019-01-06T09:49:20.554Z,27.63
2019-01-06T09:52:26.332Z,27.60
2019-01-06T09:55:32.036Z,27.23
2019-01-06T09:58:37.935Z,27.43
2019-01-06T10:01:43.652Z,27.03
2019-01-06T10:04:55.203Z,27.00
2019-01-06T10:08:00.713Z,26.57
2019-01-06T10:11:06.976Z,26.77
2019-01-06T10:14:12.842Z,27.60
2019-01-06T10:17:18.929Z,26.33
2019-01-06T10:20:24.912Z,25.73
2019-01-06T10:23:30.987Z,26.30
2019-01-06T10:26:36.898Z,25.93
2019-01-06T10:29:42.968Z,26.03
2019-01-06T10:32:48.912Z,26.20
2019-01-06T10:35:53.515Z,25.37
2019-01-06T10:38:59.249Z,26.10
2019-01-06T10:42:05.367Z,25.50
2019-01-06T10:45:17.402Z,25.97
2019-01-06T10:48:23.568Z,25.70
2019-01-06T10:51:29.831Z,26.37
2019-01-06T10:54:35.948Z,26.17
2019-01-06T10:57:48.283Z,26.50
2019-01-06T11:00:54.619Z,27.10
2019-01-06T11:04:00.392Z,26.40
2019-01-06T11:07:05.900Z,27.80
2019-01-06T11:10:12.895Z,25.97
2019-01-06T11:13:24.518Z,26.30
2019-01-06T11:16:35.759Z,26.37
2019-01-06T11:19:41.816Z,27.63
2019-01-06T11:22:47.661Z,28.13
2019-01-06T11:25:53.212Z,27.63
2019-01-06T11:28:59.020Z,27.40
2019-01-06T11:32:03.372Z,26.97
2019-01-06T11:35:08.804Z,26.53
2019-01-06T11:38:14.642Z,28.63
2019-01-06T11:41:26.142Z,27.73
2019-01-06T11:44:32.385Z,28.27
2019-01-06T11:47:35.002Z,28.53
2019-01-06T11:50:41.244Z,29.33
2019-01-06T11:53:47.332Z,29.37
2019-01-06T11:56:53.489Z,28.40
2019-01-06T11:59:59.569Z,30.70
2019-01-06T12:02:53.388Z,30.70
2019-01-06T12:06:06.495Z,29.80
2019-01-06T12:09:12.437Z,31.33
2019-01-06T12:12:21.990Z,31.47
2019-01-06T12:15:27.636Z,30.33
2019-01-06T12:18:33.805Z,30.27
2019-01-06T12:21:39.267Z,30.37
2019-01-06T12:24:45.493Z,30.73
2019-01-06T12:27:51.283Z,29.60
2019-01-06T12:30:57.281Z,29.63
2019-01-06T12:34:06.340Z,29.30
2019-01-06T12:37:10.688Z,29.77
2019-01-06T12:40:16.081Z,29.17
2019-01-06T12:43:29.194Z,29.73
2019-01-06T12:46:34.620Z,29.90
2019-01-06T12:49:39.954Z,29.73
2019-01-06T12:52:33.911Z,29.87
2019-01-06T12:55:47.316Z,33.07
2019-01-06T12:58:53.433Z,33.07
2019-01-06T13:01:59.001Z,31.63
2019-01-06T13:05:05.197Z,28.10
2019-01-06T13:08:11.092Z,28.37
2019-01-06T13:11:19.571Z,29.23
2019-01-06T13:14:27.531Z,28.13
2019-01-06T13:17:33.640Z,26.30
2019-01-06T13:20:39.854Z,26.37
2019-01-06T13:23:46.171Z,25.90
2019-01-06T13:26:52.457Z,26.00
2019-01-06T13:29:58.285Z,26.37
2019-01-06T13:33:04.198Z,26.23
2019-01-06T13:36:09.719Z,25.10
2019-01-06T13:39:15.464Z,25.30
2019-01-06T13:42:21.904Z,25.07
2019-01-06T13:45:27.719Z,25.27
2019-01-06T13:48:33.197Z,25.93
2019-01-06T13:55:06.206Z,25.83
2019-01-06T13:58:12.209Z,26.67
2019-01-06T14:01:18.094Z,26.20
2019-01-06T14:04:21.757Z,25.80
2019-01-06T14:07:27.948Z,25.67
2019-01-06T14:10:27.746Z,26.77
2019-01-06T14:13:21.585Z,25.60
2019-01-06T14:16:34.710Z,26.03
2019-01-06T14:19:40.536Z,26.17
2019-01-06T14:22:45.855Z,26.17
2019-01-06T14:25:51.723Z,25.93
2019-01-06T14:28:57.854Z,25.77
2019-01-06T14:32:06.484Z,26.00
2019-01-06T14:35:07.852Z,25.60
2019-01-06T14:38:13.883Z,25.80
2019-01-06T14:41:13.398Z,26.37
2019-01-06T14:44:19.378Z,25.67
2019-01-06T14:47:24.996Z,26.13
2019-01-06T14:50:18.839Z,26.30
2019-01-06T14:53:31.856Z,26.87
2019-01-06T14:56:37.655Z,26.03
2019-01-06T14:59:43.758Z,27.17
2019-01-06T15:02:49.668Z,29.07
2019-01-06T15:05:55.210Z,35.33
2019-01-06T15:09:01.210Z,28.90
2019-01-06T15:12:03.434Z,27.87
2019-01-06T15:15:09.544Z,27.13
2019-01-06T15:18:15.548Z,25.67
2019-01-06T15:21:21.476Z,26.50
2019-01-06T15:24:29.795Z,26.60
2019-01-06T15:27:35.460Z,26.80
2019-01-06T15:30:41.075Z,26.57
2019-01-06T15:33:52.614Z,27.43
2019-01-06T15:36:58.315Z,27.13
2019-01-06T15:40:07.287Z,26.33
2019-01-06T15:43:12.653Z,25.67
2019-01-06T15:46:18.541Z,26.43
2019-01-06T15:49:24.368Z,26.83
2019-01-06T15:52:30.247Z,27.10
2019-01-06T15:55:36.372Z,26.50
2019-01-06T15:58:42.320Z,28.53
2019-01-06T16:01:48.059Z,27.47
2019-01-06T16:04:51.324Z,27.57
2019-01-06T16:07:59.944Z,27.00
2019-01-06T16:11:05.868Z,26.50
2019-01-06T16:14:09.239Z,26.70
2019-01-06T16:17:12.366Z,28.03
2019-01-06T16:20:18.013Z,27.90
2019-01-06T16:23:24.555Z,28.70
2019-01-06T16:26:30.673Z,27.47
2019-01-06T16:29:36.799Z,27.53
2019-01-06T16:32:43.024Z,27.63
2019-01-06T16:35:51.943Z,27.30
2019-01-06T16:42:34.534Z,26.13
2019-01-06T16:45:40.138Z,26.43
2019-01-06T16:48:47.362Z,27.03
2019-01-06T16:51:53.034Z,30.10
2019-01-06T16:54:58.887Z,29.40
2019-01-06T16:58:04.817Z,30.37
2019-01-06T17:01:07.236Z,26.87
2019-01-06T17:04:17.203Z,26.77
2019-01-06T17:07:23.303Z,26.53
2019-01-06T17:10:30.259Z,25.90
2019-01-06T17:13:34.150Z,26.03
2019-01-06T17:16:40.291Z,25.77
2019-01-06T17:19:46.342Z,28.87
2019-01-06T17:22:55.076Z,27.70
2019-01-06T17:26:00.792Z,26.60
2019-01-06T17:29:06.887Z,26.47
2019-01-06T17:32:15.599Z,26.30
2019-01-06T17:35:24.622Z,26.63
2019-01-06T17:38:30.421Z,26.10
2019-01-06T17:41:37.235Z,25.93
2019-01-06T17:44:43.122Z,26.83
2019-01-06T17:47:42.068Z,27.50
2019-01-06T17:50:48.288Z,28.47
2019-01-06T17:53:53.970Z,28.67
2019-01-06T17:57:00.479Z,30.27
2019-01-06T18:00:06.644Z,30.77
2019-01-06T18:03:12.876Z,30.30
2019-01-06T18:06:13.635Z,28.40
2019-01-06T18:09:19.688Z,28.63
2019-01-06T18:12:31.371Z,28.43
2019-01-06T18:15:40.354Z,27.67
2019-01-06T18:18:46.076Z,28.17
2019-01-06T18:21:51.719Z,27.97
2019-01-06T18:24:57.808Z,29.17
2019-01-06T18:28:06.051Z,39.23
2019-01-06T18:31:12.196Z,29.00
2019-01-06T18:34:14.998Z,28.40
2019-01-06T18:37:20.735Z,28.63
2019-01-06T18:40:26.668Z,28.40
2019-01-06T18:43:29.099Z,28.97
2019-01-06T18:46:34.519Z,30.50
2019-01-06T18:49:40.819Z,29.70
2019-01-06T18:52:46.940Z,29.77
2019-01-06T18:55:52.347Z,30.03
2019-01-06T18:58:51.948Z,29.70
2019-01-06T19:01:59.228Z,29.70
2019-01-06T19:04:58.347Z,29.00
2019-01-06T19:08:03.955Z,29.10
2019-01-06T19:11:09.834Z,29.57
2019-01-06T19:14:16.012Z,30.37
2019-01-06T19:17:23.290Z,29.93
2019-01-06T19:20:29.596Z,30.40
2019-01-06T19:23:35.740Z,30.43
2019-01-06T19:26:45.018Z,30.60
2019-01-06T19:29:51.060Z,31.53
2019-01-06T19:32:56.390Z,32.57
2019-01-06T19:36:02.412Z,31.80
2019-01-06T19:39:08.438Z,36.87
2019-01-06T19:42:14.819Z,31.77
2019-01-06T19:45:23.511Z,31.97
2019-01-06T19:48:29.087Z,31.90
2019-01-06T19:51:34.015Z,31.63
2019-01-06T19:54:40.049Z,31.30
2019-01-06T19:57:47.204Z,33.07
2019-01-06T20:01:06.979Z,32.47
2019-01-06T20:04:12.601Z,32.40
2019-01-06T20:07:17.944Z,32.37
2019-01-06T20:10:24.334Z,32.50
2019-01-06T20:13:30.372Z,32.20
2019-01-06T20:16:36.260Z,31.80
2019-01-06T20:19:42.070Z,32.03
2019-01-06T20:22:47.424Z,31.90
2019-01-06T20:25:55.975Z,32.30
2019-01-06T20:29:01.846Z,31.57
2019-01-06T20:31:55.643Z,31.97
2019-01-06T20:35:08.698Z,32.47
2019-01-06T20:38:14.720Z,32.30
2019-01-06T20:41:20.748Z,31.63
2019-01-06T20:44:26.447Z,30.77
2019-01-06T20:47:31.663Z,30.73
2019-01-06T20:50:34.338Z,31.47
2019-01-06T20:53:40.178Z,30.93
2019-01-06T20:56:45.587Z,31.47
2019-01-06T20:59:53.806Z,30.93
2019-01-06T21:02:55.827Z,31.00
2019-01-06T21:06:01.644Z,30.70
2019-01-06T21:09:07.440Z,29.93
2019-01-06T21:12:13.559Z,30.60
2019-01-06T21:15:19.387Z,30.87
2019-01-06T21:18:28.908Z,30.80
2019-01-06T21:21:36.535Z,31.67
2019-01-06T21:24:42.647Z,30.57
2019-01-06T21:27:48.269Z,30.60
2019-01-06T21:30:54.328Z,30.57
2019-01-06T21:33:48.226Z,30.77
2019-01-06T21:37:01.209Z,30.80
2019-01-06T21:40:07.311Z,30.67
2019-01-06T21:43:13.299Z,30.50
2019-01-06T21:46:19.276Z,30.53
2019-01-06T21:49:25.087Z,30.27
2019-01-06T21:52:31.145Z,30.27
2019-01-06T21:55:37.481Z,29.87
2019-01-06T21:58:43.383Z,30.20
2019-01-06T22:01:49.149Z,30.03
2019-01-06T22:04:54.467Z,30.50
2019-01-06T22:08:00.343Z,30.77
2019-01-06T22:11:05.694Z,30.03
2019-01-06T22:14:11.208Z,29.80
2019-01-06T22:17:17.219Z,29.87
2019-01-06T22:20:23.267Z,30.27
2019-01-06T22:23:29.200Z,30.00
2019-01-06T22:26:34.571Z,29.80
2019-01-06T22:29:40.755Z,30.70
2019-01-06T22:32:46.660Z,29.97
2019-01-06T22:35:52.178Z,29.73
2019-01-06T22:38:58.228Z,29.40
2019-01-06T22:42:04.070Z,29.90
2019-01-06T22:45:16.085Z,29.87
2019-01-06T22:48:21.495Z,30.63
2019-01-06T22:51:32.894Z,31.27
2019-01-06T22:54:38.812Z,31.27
2019-01-06T22:57:44.519Z,32.50
2019-01-06T23:00:50.124Z,33.20
2019-01-06T23:03:56.139Z,32.53
2019-01-06T23:07:08.075Z,32.37
2019-01-06T23:10:13.475Z,31.47
2019-01-06T23:13:19.538Z,32.03
2019-01-06T23:16:25.004Z,32.77
2019-01-06T23:19:31.061Z,32.67
2019-01-06T23:22:42.454Z,32.17
2019-01-06T23:25:48.594Z,31.93
2019-01-06T23:28:48.826Z,32.07
2019-01-06T23:31:49.511Z,33.33
2019-01-06T23:34:55.439Z,32.97
2019-01-06T23:38:01.227Z,32.60
2019-01-06T23:41:09.779Z,32.90
2019-01-06T23:44:15.903Z,32.27
2019-01-06T23:47:21.854Z,33.80
2019-01-06T23:50:27.952Z,33.93
2019-01-06T23:53:33.891Z,34.23
2019-01-06T23:56:39.628Z,35.47
2019-01-06T23:59:45.467Z,34.80
